Acrelandia, Brazil
Current Conditions -  °F | °C
As of 10:00 AM on Thursday 30 Oct 2014 (Local Time) from SBRB Reporting Station
Scattered Clouds Scattered Clouds  
Wind Chill: 82°   Ceiling: Unl
Heat Index: 87°   Visibility: 6mi
Dew Point: 72°   Wind: 10mph
Humidity: 70%   Direction: 20°NNE
Pressure: 29.83"   Gusts: NA
Location:  9.83°S, 66.88°W
Report Text: SBRB 301400Z 02009KT 9999 SCT025 28/22 Q1010
Loading
Personal Weather Stations






























Interactive Weather Map
Tropical Storm Tracking
New forecast layout! Learn more

10-Day Weather Forecast

Advertisements
Track Severe Weather on mobile